Nome, AK

1:48 AM AKDT on July 28, 2015 (GMT -0800)
BA Airport | | Change Station
CLOSE
Current Station
Personal Weather Station
Location: Nome, AK
Elevation: 37 ft
Nearby Weather Stations

Elev 37 ft 64.51 °N, 165.45 °W | Updated 3 minutes ago

Clear
Clear
56.2 °F
Feels Like 56.2 °F
N
8.0
Wind Variable Wind from NE
Gusts 10.0 mph

Today
High -- | Low -- °F
--% Chance of Precip.
Yesterday
High -- | Low -- °F
Precip. -- in
5:51 AM 0:22 AM
Waxing Gibbous, 88% visible
Pressure 29.74 in
Visibility 10.0 miles
Clouds Clear
Dew Point 51 °F
Humidity 82%
Rainfall 0.00 in
Snow Depth Not available.
UV 0 out of 12
Pollen Not available.
Air Quality Not available.
Flu Activity Not available.
METAR PAOM 280853Z 13003KT 10SM CLR 12/09 A2974 RMK SLP070 T01170089 401890056 55002 VIA AUTODIAL

More Conditions Fewer Conditions

Pressure 29.74 in
Visibility 10.0 miles
Clouds Clear
Dew Point 51 °F
Humidity 82%
Rainfall 0.00 in
Snow Depth Not available.
UV 0 out of 12
Pollen Not available.
Air Quality Not available.
Flu Activity Not available.
METAR PAOM 280853Z 13003KT 10SM CLR 12/09 A2974 RMK SLP070 T01170089 401890056 55002 VIA AUTODIAL

More Conditions Fewer Conditions

10-Day Weather Forecast

×

Almanac

Astronomy

Jul. 28, 2015 Rise Set
Actual Time
Civil Twilight
Nautical Twilight
Astronomical Twilight
Moon
Length of Visible Light
Length of Day
Tomorrow will be .
, % of the Moon is Illuminated

Today's Extremes

State Highs State Lows

Community

WunderPhotos

Upload Photos

1,841,800 photos uploaded!

WunderBlogs® & News

Nearby

Air Quality

  Air Quality AQ Index Pollutant
Not available.

Snow Depth

Station Depth Elevation

Earthquake Activity

City Distance Mag. Time & Date
Minimum magnitude displayed is 2.5.

Coastal Water Temperatures

Place Temperature

Stations

Nearby Weather Stations

Station Location Temp. Windchill Dew Point Humidity Wind Precip. Elev Updated Type